createdAt,value
2022-12-20T00:00:12.795Z,36.70
2022-12-20T00:02:18.869Z,38.63
2022-12-20T00:03:23.702Z,38.22
2022-12-20T00:09:27.052Z,35.47
2022-12-20T00:11:53.987Z,35.78
2022-12-20T00:20:28.579Z,35.13
2022-12-20T00:26:56.608Z,34.78
2022-12-20T00:36:21.988Z,35.47
2022-12-20T00:39:24.964Z,36.05
2022-12-20T00:42:55.669Z,35.38
2022-12-20T00:45:52.728Z,35.10
2022-12-20T00:48:46.630Z,36.58
2022-12-20T00:51:35.394Z,34.65
2022-12-20T00:54:14.542Z,34.55
2022-12-20T00:57:00.989Z,33.67
2022-12-20T00:59:32.248Z,32.72
2022-12-20T01:02:42.893Z,32.17
2022-12-20T01:05:28.435Z,33.97
2022-12-20T01:14:23.849Z,43.42
2022-12-20T01:16:59.719Z,41.65
2022-12-20T01:19:52.591Z,39.85
2022-12-20T01:34:37.492Z,36.83
2022-12-20T01:37:10.817Z,37.00
2022-12-20T01:39:37.843Z,36.05
2022-12-20T01:42:11.650Z,34.47
2022-12-20T01:44:48.559Z,35.15
2022-12-20T01:47:22.557Z,35.30
2022-12-20T01:49:49.519Z,36.50
2022-12-20T01:52:27.603Z,35.67
2022-12-20T01:55:11.320Z,34.28
2022-12-20T01:58:09.370Z,33.97
2022-12-20T02:00:36.396Z,41.17
2022-12-20T02:03:15.654Z,43.83
2022-12-20T02:05:51.586Z,39.10
2022-12-20T02:08:26.583Z,37.13
2022-12-20T02:11:06.416Z,35.08
2022-12-20T02:14:34.615Z,34.42
2022-12-20T02:17:38.596Z,34.45
2022-12-20T02:20:44.053Z,36.47
2022-12-20T02:23:51.559Z,35.50
2022-12-20T02:26:43.202Z,36.40
2022-12-20T02:29:47.620Z,33.75
2022-12-20T02:32:35.609Z,31.83
2022-12-20T02:35:04.585Z,33.20
2022-12-20T02:37:37.606Z,32.83
2022-12-20T02:40:13.131Z,31.88
2022-12-20T02:43:08.649Z,31.92
2022-12-20T02:45:35.826Z,30.08
2022-12-20T02:48:18.656Z,32.70
2022-12-20T02:50:47.950Z,31.80
2022-12-20T02:53:21.605Z,30.52
2022-12-20T02:56:26.162Z,30.00
2022-12-20T02:59:30.637Z,29.83
2022-12-20T03:01:57.878Z,28.80
2022-12-20T03:04:36.630Z,29.30
2022-12-20T03:07:06.438Z,29.00
2022-12-20T03:09:42.608Z,27.70
2022-12-20T03:12:10.435Z,28.33
2022-12-20T03:14:44.671Z,28.73
2022-12-20T03:17:18.702Z,28.90
2022-12-20T03:19:45.669Z,27.80
2022-12-20T03:22:18.640Z,26.80
2022-12-20T03:24:45.514Z,28.80
2022-12-20T03:27:18.593Z,29.00
2022-12-20T03:29:45.470Z,29.25
2022-12-20T03:32:12.621Z,27.08
2022-12-20T03:34:45.640Z,28.73
2022-12-20T03:37:12.546Z,30.15
2022-12-20T03:39:45.596Z,28.15
2022-12-20T03:42:18.651Z,28.30
2022-12-20T03:44:45.603Z,28.55
2022-12-20T03:47:18.626Z,28.27
2022-12-20T03:49:45.526Z,27.98
2022-12-20T03:52:19.623Z,26.70
2022-12-20T03:54:46.582Z,28.20
2022-12-20T03:57:19.653Z,28.00
2022-12-20T03:59:46.589Z,26.55
2022-12-20T04:02:19.794Z,28.10
2022-12-20T04:04:47.293Z,29.67
2022-12-20T04:07:20.634Z,29.55
2022-12-20T04:09:53.657Z,30.90
2022-12-20T04:12:20.558Z,30.98
2022-12-20T04:14:53.617Z,29.00
2022-12-20T04:20:07.675Z,33.90
2022-12-20T04:22:40.675Z,33.85
2022-12-20T04:25:08.051Z,34.80
2022-12-20T04:27:41.664Z,31.83
2022-12-20T04:30:09.667Z,34.67
2022-12-20T04:32:42.618Z,33.03
2022-12-20T04:35:16.674Z,30.55
2022-12-20T04:37:43.538Z,30.40
2022-12-20T04:40:17.617Z,33.90
2022-12-20T04:42:44.457Z,27.60
2022-12-20T04:45:11.627Z,27.42
2022-12-20T04:50:33.297Z,25.38
2022-12-20T04:53:06.726Z,24.50
2022-12-20T04:55:40.410Z,23.23
2022-12-20T04:58:14.669Z,22.58
2022-12-20T05:00:41.545Z,23.55
2022-12-20T05:03:14.810Z,22.75
2022-12-20T05:05:41.808Z,23.92
2022-12-20T05:08:15.654Z,23.77
2022-12-20T05:10:42.745Z,24.17
2022-12-20T05:13:16.685Z,23.85
2022-12-20T05:15:50.704Z,23.17
2022-12-20T05:18:23.654Z,23.08
2022-12-20T05:20:50.699Z,24.10
2022-12-20T05:23:23.674Z,24.00
2022-12-20T05:25:57.675Z,24.48
2022-12-20T05:28:24.544Z,24.40
2022-12-20T05:30:57.716Z,23.15
2022-12-20T05:33:34.161Z,21.35
2022-12-20T05:36:01.354Z,22.17
2022-12-20T05:38:28.237Z,21.08
2022-12-20T05:41:01.661Z,21.25
2022-12-20T05:43:34.646Z,22.98
2022-12-20T05:46:01.541Z,21.92
2022-12-20T05:48:34.641Z,22.63
2022-12-20T05:51:01.586Z,27.92
2022-12-20T05:53:34.708Z,25.42
2022-12-20T05:56:08.677Z,22.90
2022-12-20T05:58:35.637Z,22.05
2022-12-20T06:01:13.695Z,23.58
2022-12-20T06:03:41.077Z,23.45
2022-12-20T06:06:15.532Z,23.05
2022-12-20T06:08:43.404Z,21.58
2022-12-20T06:11:10.303Z,22.58
2022-12-20T06:13:43.699Z,20.63
2022-12-20T06:16:10.630Z,20.80
2022-12-20T06:18:43.691Z,21.38
2022-12-20T06:21:10.604Z,20.45
2022-12-20T06:23:43.701Z,20.80
2022-12-20T06:26:10.608Z,22.55
2022-12-20T06:28:37.475Z,23.35
2022-12-20T06:31:13.122Z,20.35
2022-12-20T06:33:40.092Z,25.67
2022-12-20T06:36:13.658Z,22.33
2022-12-20T06:38:40.572Z,22.05
2022-12-20T06:41:13.719Z,21.27
2022-12-20T06:43:40.637Z,25.33
2022-12-20T06:46:07.537Z,27.25
2022-12-20T06:48:40.697Z,27.08
2022-12-20T06:51:07.580Z,27.92
2022-12-20T06:53:40.725Z,25.67
2022-12-20T06:56:07.898Z,26.38
2022-12-20T06:58:41.728Z,25.45
2022-12-20T07:01:15.768Z,26.13
2022-12-20T07:03:42.776Z,24.85
2022-12-20T07:06:09.755Z,25.00
2022-12-20T07:08:42.701Z,22.85
2022-12-20T07:11:09.661Z,23.25
2022-12-20T07:13:42.748Z,22.08
2022-12-20T07:16:16.771Z,21.92
2022-12-20T07:18:43.715Z,22.50
2022-12-20T07:21:10.623Z,25.38
2022-12-20T07:23:43.701Z,29.90
2022-12-20T07:26:10.627Z,30.90
2022-12-20T07:28:43.745Z,26.52
2022-12-20T07:31:10.786Z,28.30
2022-12-20T07:33:44.744Z,27.27
2022-12-20T07:36:12.668Z,28.70
2022-12-20T07:38:39.914Z,28.50
2022-12-20T07:41:15.767Z,27.10
2022-12-20T07:43:49.705Z,27.90
2022-12-20T07:46:16.931Z,27.85
2022-12-20T07:48:50.747Z,27.80
2022-12-20T07:51:29.727Z,25.73
2022-12-20T07:54:12.483Z,25.58
2022-12-20T07:56:49.810Z,26.05
2022-12-20T07:59:21.144Z,27.38
2022-12-20T08:01:59.284Z,24.33
2022-12-20T08:04:29.385Z,23.77
2022-12-20T08:07:02.721Z,22.63
2022-12-20T08:09:31.890Z,23.88
2022-12-20T08:12:05.702Z,24.80
2022-12-20T08:14:32.665Z,24.13
2022-12-20T08:17:05.890Z,23.20
2022-12-20T08:19:33.176Z,22.55
2022-12-20T08:22:06.813Z,22.77
2022-12-20T08:24:34.031Z,20.45
2022-12-20T08:27:08.017Z,20.88
2022-12-20T08:29:35.077Z,18.77
2022-12-20T08:32:02.025Z,19.67
2022-12-20T08:34:35.801Z,21.00
2022-12-20T08:37:06.554Z,18.88
2022-12-20T08:39:43.860Z,21.48
2022-12-20T08:42:17.809Z,20.92
2022-12-20T08:44:51.764Z,19.02
2022-12-20T08:47:24.918Z,18.55
2022-12-20T08:49:51.941Z,18.60
2022-12-20T08:52:19.029Z,18.52
2022-12-20T08:54:52.881Z,17.52
2022-12-20T08:57:26.839Z,16.85
2022-12-20T09:00:00.874Z,17.95
2022-12-20T09:02:28.015Z,17.67
2022-12-20T09:05:01.809Z,19.73
2022-12-20T09:07:29.227Z,21.92
2022-12-20T09:09:56.346Z,19.80
2022-12-20T09:12:29.855Z,19.23
2022-12-20T09:14:56.793Z,18.77
2022-12-20T09:17:29.784Z,18.38
2022-12-20T09:19:56.783Z,18.20
2022-12-20T09:22:29.800Z,19.23
2022-12-20T09:24:56.806Z,32.83
2022-12-20T09:27:29.827Z,33.33
2022-12-20T09:29:56.756Z,24.75
2022-12-20T09:32:29.779Z,21.17
2022-12-20T09:34:56.682Z,21.33
2022-12-20T09:37:32.580Z,21.70
2022-12-20T09:39:59.514Z,24.92
2022-12-20T09:42:33.789Z,35.50
2022-12-20T09:45:08.576Z,31.77
2022-12-20T09:47:42.745Z,58.95
2022-12-20T09:50:15.790Z,53.80
2022-12-20T09:53:06.809Z,35.00
2022-12-20T09:55:49.838Z,28.05
2022-12-20T09:58:30.196Z,27.60
2022-12-20T10:01:03.815Z,27.30
2022-12-20T10:03:37.570Z,41.25
2022-12-20T10:06:34.814Z,31.35
2022-12-20T10:09:10.902Z,25.27
2022-12-20T10:12:01.795Z,24.17
2022-12-20T10:14:59.804Z,24.02
2022-12-20T10:18:04.842Z,25.95
2022-12-20T10:20:43.823Z,23.88
2022-12-20T10:23:37.834Z,22.92
2022-12-20T10:26:15.765Z,22.98
2022-12-20T10:28:42.705Z,23.73
2022-12-20T10:31:21.991Z,24.80
2022-12-20T10:33:49.121Z,24.13
2022-12-20T10:36:36.847Z,24.77
2022-12-20T10:39:13.853Z,26.50
2022-12-20T10:41:40.812Z,25.05
2022-12-20T10:44:34.842Z,31.65
2022-12-20T10:47:08.888Z,34.83
2022-12-20T10:49:37.875Z,25.25
2022-12-20T10:52:19.890Z,23.15
2022-12-20T10:54:46.991Z,23.45
2022-12-20T10:57:31.920Z,22.05
2022-12-20T11:00:01.296Z,21.75
2022-12-20T11:02:42.749Z,21.52
2022-12-20T11:05:10.062Z,21.08
2022-12-20T11:10:46.665Z,24.45
2022-12-20T11:13:32.867Z,24.13
2022-12-20T11:15:59.856Z,28.02
2022-12-20T11:18:51.836Z,26.42
2022-12-20T11:21:41.900Z,24.65
2022-12-20T11:24:24.811Z,23.85
2022-12-20T11:27:11.989Z,26.02
2022-12-20T11:30:19.964Z,26.23
2022-12-20T11:33:05.231Z,24.98
2022-12-20T11:36:01.869Z,23.20
2022-12-20T11:38:39.793Z,21.27
2022-12-20T11:41:32.838Z,23.90
2022-12-20T11:44:45.693Z,23.73
2022-12-20T11:47:49.868Z,26.15
2022-12-20T11:50:41.876Z,25.20
2022-12-20T11:54:03.320Z,24.98
2022-12-20T11:56:45.250Z,23.42
2022-12-20T11:59:35.337Z,26.10
2022-12-20T12:02:20.934Z,25.20
2022-12-20T12:05:30.108Z,27.17
2022-12-20T12:08:13.487Z,23.25
2022-12-20T12:10:58.953Z,21.95
2022-12-20T12:13:34.884Z,24.02
2022-12-20T12:16:17.637Z,21.38
2022-12-20T12:18:50.855Z,21.15
2022-12-20T12:21:35.406Z,21.63
2022-12-20T12:24:35.878Z,20.90
2022-12-20T12:27:02.899Z,20.70
2022-12-20T12:29:36.810Z,20.35
2022-12-20T12:32:48.735Z,20.40
2022-12-20T12:36:07.831Z,17.95
2022-12-20T12:39:18.862Z,16.95
2022-12-20T12:42:05.896Z,16.25
2022-12-20T12:44:56.753Z,17.05
2022-12-20T12:47:42.827Z,16.42
2022-12-20T12:50:26.437Z,16.98
2022-12-20T12:53:01.894Z,16.65
2022-12-20T12:55:42.866Z,19.30
2022-12-20T12:58:31.905Z,19.40
2022-12-20T13:01:05.513Z,16.67
2022-12-20T13:03:58.905Z,15.63
2022-12-20T13:06:25.803Z,16.10
2022-12-20T13:08:58.820Z,16.13
2022-12-20T13:11:48.501Z,14.73
2022-12-20T13:14:23.028Z,15.48
2022-12-20T13:17:16.186Z,15.30
2022-12-20T13:19:57.065Z,15.02
2022-12-20T13:22:30.912Z,15.13
2022-12-20T13:25:04.472Z,16.05
2022-12-20T13:27:46.862Z,15.80
2022-12-20T13:30:13.806Z,15.25
2022-12-20T13:33:04.944Z,16.10
2022-12-20T13:35:44.345Z,16.73
2022-12-20T13:38:51.991Z,16.05
2022-12-20T13:41:42.556Z,17.02
2022-12-20T13:44:21.893Z,17.25
2022-12-20T13:47:02.909Z,17.75
2022-12-20T13:49:46.853Z,17.15
2022-12-20T13:52:30.028Z,17.75
2022-12-20T13:55:09.927Z,16.90
2022-12-20T13:57:42.754Z,19.23
2022-12-20T14:00:33.998Z,19.58
2022-12-20T14:03:01.402Z,17.83
2022-12-20T14:05:43.903Z,19.00
2022-12-20T14:08:20.725Z,18.52
2022-12-20T14:10:53.974Z,18.20
2022-12-20T14:13:23.981Z,18.23
2022-12-20T14:15:57.905Z,18.30
2022-12-20T14:18:25.902Z,18.63
2022-12-20T14:21:05.025Z,20.13
2022-12-20T14:23:48.926Z,19.20
2022-12-20T14:26:28.913Z,18.73
2022-12-20T14:29:00.212Z,18.80
2022-12-20T14:31:36.986Z,19.83
2022-12-20T14:34:17.918Z,20.88
2022-12-20T14:36:49.542Z,21.40
2022-12-20T14:39:39.952Z,21.55
2022-12-20T14:42:09.918Z,21.38
2022-12-20T14:44:36.869Z,21.73
2022-12-20T14:47:27.907Z,20.77
2022-12-20T14:49:58.924Z,22.77
2022-12-20T14:52:44.892Z,23.42
2022-12-20T14:55:23.419Z,23.58
2022-12-20T14:58:01.996Z,27.50
2022-12-20T15:00:33.750Z,23.70
2022-12-20T15:03:23.167Z,23.20
2022-12-20T15:05:54.980Z,20.25
2022-12-20T15:08:36.875Z,20.95
2022-12-20T15:11:09.788Z,21.20
2022-12-20T15:13:47.897Z,28.35
2022-12-20T15:16:19.656Z,26.23
2022-12-20T15:18:53.996Z,26.42
2022-12-20T15:21:40.988Z,24.27
2022-12-20T15:24:24.967Z,24.73
2022-12-20T15:26:52.068Z,24.42
2022-12-20T15:29:21.592Z,26.20
2022-12-20T15:31:55.308Z,25.30
2022-12-20T15:34:40.970Z,22.35
2022-12-20T15:37:19.015Z,25.33
2022-12-20T15:39:46.260Z,23.98
2022-12-20T15:42:23.913Z,25.23
2022-12-20T15:44:50.833Z,27.10
2022-12-20T15:47:17.775Z,24.75
2022-12-20T15:49:50.970Z,26.42
2022-12-20T15:52:23.093Z,26.85
2022-12-20T15:54:56.975Z,31.42
2022-12-20T15:57:30.594Z,31.40
2022-12-20T16:00:04.458Z,31.33
2022-12-20T16:02:52.211Z,31.50
2022-12-20T16:05:25.896Z,35.85
2022-12-20T16:07:52.820Z,33.65
2022-12-20T16:10:25.967Z,33.33
2022-12-20T16:12:52.945Z,34.10
2022-12-20T16:15:27.984Z,31.63
2022-12-20T16:17:54.939Z,28.90
2022-12-20T16:20:21.878Z,29.13
2022-12-20T16:22:54.944Z,28.60
2022-12-20T16:25:32.137Z,29.35
2022-12-20T16:28:06.003Z,27.65
2022-12-20T16:30:33.376Z,26.33
2022-12-20T16:33:07.197Z,29.27
2022-12-20T16:35:44.246Z,29.52
2022-12-20T16:38:12.655Z,27.15
2022-12-20T16:40:46.335Z,27.17
2022-12-20T16:43:14.847Z,25.50
2022-12-20T16:45:48.162Z,25.20
2022-12-20T16:48:17.025Z,25.08
2022-12-20T16:50:51.152Z,30.13
2022-12-20T16:53:18.132Z,44.42
2022-12-20T16:55:51.997Z,56.17
2022-12-20T16:58:19.041Z,46.72
2022-12-20T17:00:52.027Z,48.83
2022-12-20T17:03:25.010Z,42.80
2022-12-20T17:05:51.970Z,36.47
2022-12-20T17:11:20.271Z,32.85
2022-12-20T17:13:55.135Z,30.80
2022-12-20T17:16:22.843Z,27.33
2022-12-20T17:18:58.039Z,27.77
2022-12-20T17:24:37.989Z,27.73
2022-12-20T17:27:05.142Z,28.10
2022-12-20T17:29:39.077Z,26.48
2022-12-20T17:32:24.574Z,26.60
2022-12-20T17:34:58.983Z,27.70
2022-12-20T17:37:25.959Z,28.50
2022-12-20T17:40:00.102Z,29.40
2022-12-20T17:42:33.994Z,27.35
2022-12-20T17:45:00.953Z,27.63
2022-12-20T17:47:34.021Z,27.05
2022-12-20T17:50:00.905Z,29.80
2022-12-20T17:52:34.027Z,31.80
2022-12-20T17:55:00.940Z,30.92
2022-12-20T17:57:33.978Z,28.27
2022-12-20T18:00:00.916Z,27.05
2022-12-20T18:02:34.106Z,26.35
2022-12-20T18:05:01.183Z,26.20
2022-12-20T18:07:39.980Z,24.65
2022-12-20T18:10:08.068Z,25.40
2022-12-20T18:12:42.038Z,23.70
2022-12-20T18:15:09.465Z,22.52
2022-12-20T18:17:42.969Z,22.70
2022-12-20T18:20:10.563Z,23.00
2022-12-20T18:22:43.976Z,21.90
2022-12-20T18:25:11.030Z,20.55
2022-12-20T18:27:51.545Z,22.38
2022-12-20T18:30:18.545Z,23.35
2022-12-20T18:32:52.077Z,23.52
2022-12-20T18:35:18.961Z,24.33
2022-12-20T18:37:52.010Z,24.13
2022-12-20T18:40:19.081Z,23.63
2022-12-20T18:42:51.991Z,25.85
2022-12-20T18:45:18.897Z,25.35
2022-12-20T18:47:52.038Z,24.38
2022-12-20T18:50:18.971Z,29.23
2022-12-20T18:52:55.391Z,30.75
2022-12-20T18:55:24.806Z,26.60
2022-12-20T18:57:58.042Z,24.55
2022-12-20T19:00:25.035Z,26.70
2022-12-20T19:02:58.107Z,29.25
2022-12-20T19:05:26.163Z,31.88
2022-12-20T19:08:00.035Z,30.80
2022-12-20T19:10:37.081Z,28.95
2022-12-20T19:13:06.153Z,26.85
2022-12-20T19:15:33.263Z,27.13
2022-12-20T19:18:07.025Z,26.08
2022-12-20T19:20:37.352Z,24.05
2022-12-20T19:23:04.298Z,23.55
2022-12-20T19:25:42.015Z,24.67
2022-12-20T19:28:08.958Z,27.27
2022-12-20T19:30:35.961Z,28.17
2022-12-20T19:33:09.040Z,30.58
2022-12-20T19:38:29.042Z,27.08
2022-12-20T19:41:02.028Z,24.23
2022-12-20T19:43:29.364Z,26.35
2022-12-20T19:45:59.437Z,25.35
2022-12-20T19:48:33.030Z,26.33
2022-12-20T19:51:04.768Z,26.13
2022-12-20T19:53:31.991Z,24.98
2022-12-20T19:56:05.081Z,25.58
2022-12-20T19:58:32.074Z,24.92
2022-12-20T20:00:59.060Z,24.73
2022-12-20T20:03:32.087Z,26.83
2022-12-20T20:05:59.195Z,25.67
2022-12-20T20:08:33.043Z,25.40
2022-12-20T20:11:09.748Z,26.75
2022-12-20T20:13:37.751Z,24.73
2022-12-20T20:16:15.475Z,25.73
2022-12-20T20:18:47.078Z,25.60
2022-12-20T20:21:22.110Z,26.52
2022-12-20T20:23:50.615Z,24.73
2022-12-20T20:26:27.072Z,26.92
2022-12-20T20:28:53.994Z,27.17
2022-12-20T20:31:28.094Z,24.80
2022-12-20T20:33:55.160Z,22.55
2022-12-20T20:36:29.101Z,22.60
2022-12-20T20:38:56.106Z,23.73
2022-12-20T20:41:30.126Z,24.40
2022-12-20T20:43:57.163Z,22.48
2022-12-20T20:46:24.144Z,22.08
2022-12-20T20:48:58.083Z,22.63
2022-12-20T20:51:24.950Z,22.90
2022-12-20T20:53:58.071Z,22.88
2022-12-20T20:56:24.961Z,21.85
2022-12-20T20:59:04.963Z,21.50
2022-12-20T21:01:34.123Z,23.52
2022-12-20T21:04:08.069Z,22.15
2022-12-20T21:06:40.343Z,22.00
2022-12-20T21:09:15.099Z,21.50
2022-12-20T21:11:42.060Z,20.90
2022-12-20T21:14:16.117Z,20.00
2022-12-20T21:16:43.157Z,22.67
2022-12-20T21:19:10.119Z,22.83
2022-12-20T21:21:43.140Z,26.73
2022-12-20T21:24:10.037Z,25.50
2022-12-20T21:26:43.051Z,35.72
2022-12-20T21:29:10.186Z,37.65
2022-12-20T21:31:44.196Z,40.58
2022-12-20T21:34:18.140Z,36.00
2022-12-20T21:36:51.130Z,27.20
2022-12-20T21:39:18.255Z,27.10
2022-12-20T21:41:45.161Z,33.15
2022-12-20T21:44:19.086Z,31.40
2022-12-20T21:46:46.127Z,27.92
2022-12-20T21:49:20.153Z,24.10
2022-12-20T21:51:47.109Z,21.52
2022-12-20T21:54:20.068Z,21.30
2022-12-20T21:56:53.776Z,18.85
2022-12-20T21:59:27.115Z,19.92
2022-12-20T22:01:54.379Z,20.42
2022-12-20T22:04:28.118Z,22.48
2022-12-20T22:06:55.115Z,22.10
2022-12-20T22:09:28.104Z,21.80
2022-12-20T22:11:55.027Z,23.73
2022-12-20T22:14:28.149Z,23.45
2022-12-20T22:17:01.061Z,21.80
2022-12-20T22:19:28.012Z,21.42
2022-12-20T22:22:01.149Z,20.77
2022-12-20T22:24:28.064Z,20.77
2022-12-20T22:27:03.801Z,20.02
2022-12-20T22:29:34.715Z,21.05
2022-12-20T22:32:08.208Z,22.15
2022-12-20T22:34:35.197Z,20.48
2022-12-20T22:37:09.130Z,21.45
2022-12-20T22:39:36.041Z,21.95
2022-12-20T22:42:02.978Z,21.80
2022-12-20T22:44:36.118Z,21.02
2022-12-20T22:47:03.086Z,20.75
2022-12-20T22:49:36.103Z,20.88
2022-12-20T22:52:10.168Z,19.92
2022-12-20T22:54:37.131Z,21.45
2022-12-20T22:57:10.107Z,21.80
2022-12-20T22:59:43.113Z,22.02
2022-12-20T23:02:10.142Z,30.00
2022-12-20T23:04:43.162Z,26.58
2022-12-20T23:07:10.397Z,24.75
2022-12-20T23:09:44.120Z,23.05
2022-12-20T23:12:11.296Z,24.75
2022-12-20T23:14:45.195Z,24.95
2022-12-20T23:17:18.135Z,42.25
2022-12-20T23:19:45.166Z,41.22
2022-12-20T23:22:18.146Z,29.85
2022-12-20T23:24:46.460Z,24.67
2022-12-20T23:27:20.103Z,32.88
2022-12-20T23:29:47.040Z,28.92
2022-12-20T23:32:20.121Z,26.05
2022-12-20T23:34:47.028Z,24.65
2022-12-20T23:37:20.278Z,22.92
2022-12-20T23:39:47.180Z,23.80
2022-12-20T23:42:57.563Z,23.88
2022-12-20T23:45:24.519Z,22.73
2022-12-20T23:47:58.152Z,22.42
2022-12-20T23:50:25.115Z,22.88
2022-12-20T23:52:58.134Z,23.20
2022-12-20T23:55:27.151Z,22.80
2022-12-20T23:58:00.133Z,22.60
